createdAt,value
2022-10-22T00:00:09.478Z,101411.34
2022-10-22T00:02:36.716Z,101403.44
2022-10-22T00:05:04.962Z,101409.16
2022-10-22T00:07:32.416Z,101419.78
2022-10-22T00:09:59.614Z,101415.53
2022-10-22T00:12:27.424Z,101411.78
2022-10-22T00:14:54.578Z,101404.72
2022-10-22T00:17:21.803Z,101396.53
2022-10-22T00:19:48.996Z,101385.31
2022-10-22T00:22:16.419Z,101373.19
2022-10-22T00:24:43.669Z,101337.69
2022-10-22T00:27:11.981Z,101329.31
2022-10-22T00:29:39.147Z,101337.59
2022-10-22T00:32:07.217Z,101366.88
2022-10-22T00:34:34.515Z,101394.44
2022-10-22T00:37:01.681Z,101397.63
2022-10-22T00:39:29.483Z,101393.84
2022-10-22T00:41:58.219Z,101382.75
2022-10-22T00:45:03.110Z,101387.75
2022-10-22T00:48:07.251Z,101367.41
2022-10-22T00:50:47.906Z,101345.25
2022-10-22T00:53:21.830Z,101357.38
2022-10-22T00:55:53.295Z,101342.13
2022-10-22T00:58:25.275Z,101339.44
2022-10-22T01:00:52.655Z,101353.88
2022-10-22T01:03:20.836Z,101356.13
2022-10-22T01:06:03.630Z,101340.44
2022-10-22T01:08:52.636Z,101340.28
2022-10-22T01:12:04.496Z,101347.22
2022-10-22T01:15:02.317Z,101349.31
2022-10-22T01:17:50.537Z,101355.72
2022-10-22T01:20:35.550Z,101354.25
2022-10-22T01:23:21.307Z,101362.47
2022-10-22T01:25:57.262Z,101349.31
2022-10-22T01:28:45.867Z,101324.06
2022-10-22T01:31:16.548Z,101325.31
2022-10-22T01:33:46.893Z,101316.97
2022-10-22T01:36:16.591Z,101316.81
2022-10-22T01:38:46.123Z,101297.47
2022-10-22T01:41:14.266Z,101254.38
2022-10-22T01:43:41.386Z,101249.09
2022-10-22T01:46:11.382Z,101246.16
2022-10-22T01:49:05.929Z,101250.25
2022-10-22T01:51:41.839Z,101257.94
2022-10-22T01:54:17.757Z,101262.91
2022-10-22T01:57:04.651Z,101265.13
2022-10-22T01:59:50.164Z,101255.47
2022-10-22T02:02:41.061Z,101257.88
2022-10-22T02:05:16.687Z,101256.25
2022-10-22T02:07:50.026Z,101253.72
2022-10-22T02:10:17.891Z,101264.97
2022-10-22T02:12:48.553Z,101258.59
2022-10-22T02:15:18.814Z,101238.66
2022-10-22T02:17:46.954Z,101241.13
2022-10-22T02:20:22.097Z,101241.91
2022-10-22T02:22:49.938Z,101239.75
2022-10-22T02:25:17.523Z,101249.78
2022-10-22T02:27:54.252Z,101263.34
2022-10-22T02:30:22.964Z,101246.88
2022-10-22T02:32:49.989Z,101234.16
2022-10-22T02:35:22.393Z,101243.03
2022-10-22T02:37:51.127Z,101251.28
2022-10-22T02:40:18.965Z,101241.13
2022-10-22T02:42:48.850Z,101236.25
2022-10-22T02:45:18.337Z,101263.28
2022-10-22T02:47:46.065Z,101275.13
2022-10-22T02:50:13.606Z,101266.72
2022-10-22T02:52:41.302Z,101266.94
2022-10-22T02:55:09.108Z,101261.22
2022-10-22T02:57:36.337Z,101260.44
2022-10-22T03:00:05.926Z,101264.88
2022-10-22T03:02:33.150Z,101269.25
2022-10-22T03:05:01.017Z,101265.81
2022-10-22T03:07:28.180Z,101272.56
2022-10-22T03:09:55.277Z,101263.81
2022-10-22T03:12:22.427Z,101253.22
2022-10-22T03:14:49.575Z,101227.25
2022-10-22T03:17:16.736Z,101206.94
2022-10-22T03:19:43.841Z,101219.50
2022-10-22T03:22:18.119Z,101240.84
2022-10-22T03:24:48.023Z,101251.88
2022-10-22T03:27:18.482Z,101241.66
2022-10-22T03:29:46.928Z,101212.38
2022-10-22T03:32:14.063Z,101193.84
2022-10-22T03:34:41.162Z,101199.38
2022-10-22T03:37:08.322Z,101218.53
2022-10-22T03:39:36.439Z,101210.47
2022-10-22T03:42:05.600Z,101223.91
2022-10-22T03:44:33.566Z,101226.84
2022-10-22T03:47:02.618Z,101232.53
2022-10-22T03:49:30.341Z,101221.63
2022-10-22T03:51:57.545Z,101224.91
2022-10-22T03:54:24.796Z,101220.09
2022-10-22T03:56:51.960Z,101217.72
2022-10-22T03:59:19.078Z,101229.34
2022-10-22T04:01:46.195Z,101230.00
2022-10-22T04:04:13.290Z,101227.47
2022-10-22T04:06:40.382Z,101223.09
2022-10-22T04:09:07.629Z,101226.91
2022-10-22T04:11:34.751Z,101229.16
2022-10-22T04:14:01.926Z,101213.63
2022-10-22T04:16:31.383Z,101218.03
2022-10-22T04:18:58.923Z,101218.44
2022-10-22T04:21:26.053Z,101220.13
2022-10-22T04:23:53.575Z,101218.31
2022-10-22T04:26:21.041Z,101216.34
2022-10-22T04:28:50.857Z,101207.84
2022-10-22T04:31:20.348Z,101206.59
2022-10-22T04:33:47.931Z,101208.16
2022-10-22T04:36:17.906Z,101204.75
2022-10-22T04:38:46.845Z,101195.28
2022-10-22T04:41:15.700Z,101193.44
2022-10-22T04:43:43.402Z,101200.34
2022-10-22T04:46:12.029Z,101200.50
2022-10-22T04:48:41.795Z,101195.81
2022-10-22T04:51:11.911Z,101191.88
2022-10-22T04:53:40.506Z,101191.88
2022-10-22T04:56:16.799Z,101195.44
2022-10-22T04:58:44.095Z,101195.81
2022-10-22T05:01:12.759Z,101199.47
2022-10-22T05:03:40.197Z,101202.31
2022-10-22T05:06:08.483Z,101202.75
2022-10-22T05:08:35.800Z,101202.88
2022-10-22T05:11:11.179Z,101202.78
2022-10-22T05:13:38.740Z,101200.09
2022-10-22T05:16:06.356Z,101194.41
2022-10-22T05:18:37.950Z,101175.19
2022-10-22T05:21:09.398Z,101174.34
2022-10-22T05:23:36.566Z,101178.28
2022-10-22T05:26:04.990Z,101170.53
2022-10-22T05:28:32.808Z,101181.41
2022-10-22T05:31:01.180Z,101179.09
2022-10-22T05:33:30.437Z,101177.41
2022-10-22T05:35:57.901Z,101174.16
2022-10-22T05:38:25.442Z,101171.03
2022-10-22T05:41:06.185Z,101176.78
2022-10-22T05:43:34.329Z,101178.63
2022-10-22T05:46:09.574Z,101181.75
2022-10-22T05:48:37.448Z,101185.16
2022-10-22T05:51:11.134Z,101180.81
2022-10-22T05:53:40.919Z,101185.22
2022-10-22T05:56:12.249Z,101185.22
2022-10-22T05:58:39.651Z,101182.13
2022-10-22T06:01:14.939Z,101170.38
2022-10-22T06:03:42.505Z,101164.44
2022-10-22T06:06:30.389Z,101171.50
2022-10-22T06:09:21.284Z,101180.28
2022-10-22T06:11:49.330Z,101185.91
2022-10-22T06:14:17.854Z,101194.25
2022-10-22T06:16:45.095Z,101198.06
2022-10-22T06:19:14.667Z,101206.97
2022-10-22T06:21:42.377Z,101192.97
2022-10-22T06:24:10.455Z,101198.47
2022-10-22T06:26:38.059Z,101201.56
2022-10-22T06:29:05.683Z,101202.69
2022-10-22T06:31:36.739Z,101207.91
2022-10-22T06:34:08.027Z,101211.31
2022-10-22T06:36:35.404Z,101218.97
2022-10-22T06:39:03.727Z,101198.94
2022-10-22T06:41:31.245Z,101209.63
2022-10-22T06:43:58.406Z,101205.72
2022-10-22T06:46:26.345Z,101201.06
2022-10-22T06:49:02.408Z,101202.19
2022-10-22T06:51:29.857Z,101198.19
2022-10-22T06:53:58.239Z,101210.72
2022-10-22T06:56:27.738Z,101221.84
2022-10-22T06:58:56.602Z,101212.84
2022-10-22T07:01:31.255Z,101207.63
2022-10-22T07:03:58.773Z,101216.63
2022-10-22T07:06:27.428Z,101213.72
2022-10-22T07:08:56.337Z,101224.69
2022-10-22T07:11:29.213Z,101225.75
2022-10-22T07:13:58.666Z,101226.84
2022-10-22T07:16:29.657Z,101226.44
2022-10-22T07:18:58.287Z,101233.91
2022-10-22T07:21:26.163Z,101247.53
2022-10-22T07:23:53.460Z,101232.34
2022-10-22T07:26:20.955Z,101238.84
2022-10-22T07:28:48.543Z,101236.63
2022-10-22T07:31:16.867Z,101238.59
2022-10-22T07:33:44.915Z,101240.44
2022-10-22T07:36:17.514Z,101237.22
2022-10-22T07:38:54.407Z,101245.69
2022-10-22T07:41:21.542Z,101248.75
2022-10-22T07:43:48.638Z,101254.78
2022-10-22T07:46:15.898Z,101245.97
2022-10-22T07:48:42.998Z,101244.78
2022-10-22T07:51:10.397Z,101245.44
2022-10-22T07:53:37.955Z,101266.47
2022-10-22T07:56:05.747Z,101265.09
2022-10-22T07:58:33.397Z,101274.63
2022-10-22T08:01:02.204Z,101265.66
2022-10-22T08:03:29.696Z,101266.31
2022-10-22T08:05:57.278Z,101270.25
2022-10-22T08:08:27.127Z,101270.81
2022-10-22T08:10:59.272Z,101278.44
2022-10-22T08:13:27.521Z,101280.69
2022-10-22T08:15:57.384Z,101284.97
2022-10-22T08:18:25.453Z,101282.38
2022-10-22T08:20:53.179Z,101277.09
2022-10-22T08:23:24.490Z,101284.59
2022-10-22T08:25:57.425Z,101275.63
2022-10-22T08:28:24.668Z,101274.47
2022-10-22T08:30:51.785Z,101259.31
2022-10-22T08:33:18.902Z,101262.13
2022-10-22T08:35:50.544Z,101262.00
2022-10-22T08:38:19.032Z,101274.13
2022-10-22T08:40:53.939Z,101280.38
2022-10-22T08:43:39.814Z,101287.19
2022-10-22T08:46:31.388Z,101281.59
2022-10-22T08:49:04.483Z,101283.97
2022-10-22T08:51:34.513Z,101269.81
2022-10-22T08:54:01.469Z,101278.91
2022-10-22T08:56:29.874Z,101277.38
2022-10-22T08:59:13.751Z,101281.13
2022-10-22T09:01:48.975Z,101294.09
2022-10-22T09:04:25.523Z,101292.06
2022-10-22T09:06:55.191Z,101302.72
2022-10-22T09:09:27.049Z,101305.94
2022-10-22T09:11:56.649Z,101310.34
2022-10-22T09:14:25.887Z,101301.28
2022-10-22T09:17:05.047Z,101299.75
2022-10-22T09:19:48.284Z,101314.44
2022-10-22T09:22:31.963Z,101303.19
2022-10-22T09:25:13.919Z,101319.56
2022-10-22T09:27:41.230Z,101316.84
2022-10-22T09:30:20.755Z,101325.31
2022-10-22T09:33:00.078Z,101321.25
2022-10-22T09:35:27.479Z,101306.91
2022-10-22T09:37:56.860Z,101306.03
2022-10-22T09:40:26.187Z,101322.09
2022-10-22T09:42:53.278Z,101325.66
2022-10-22T09:45:29.106Z,101324.81
2022-10-22T09:48:14.321Z,101329.22
2022-10-22T09:50:46.514Z,101324.28
2022-10-22T09:53:26.698Z,101315.19
2022-10-22T09:55:57.721Z,101312.97
2022-10-22T09:58:25.773Z,101326.66
2022-10-22T10:00:56.406Z,101332.91
2022-10-22T10:03:28.146Z,101332.91
2022-10-22T10:06:01.591Z,101331.75
2022-10-22T10:08:32.152Z,101336.97
2022-10-22T10:11:33.578Z,101331.72
2022-10-22T10:14:35.383Z,101337.16
2022-10-22T10:17:02.419Z,101334.63
2022-10-22T10:19:47.598Z,101339.34
2022-10-22T10:22:25.208Z,101339.69
2022-10-22T10:25:17.439Z,101329.03
2022-10-22T10:27:50.269Z,101338.16
2022-10-22T10:30:21.160Z,101338.50
2022-10-22T10:33:06.681Z,101343.25
2022-10-22T10:36:02.154Z,101329.69
2022-10-22T10:38:42.491Z,101337.81
2022-10-22T10:41:35.591Z,101334.41
2022-10-22T10:44:29.658Z,101341.97
2022-10-22T10:47:12.347Z,101337.38
2022-10-22T10:49:39.470Z,101341.34
2022-10-22T10:52:36.422Z,101345.88
2022-10-22T10:55:30.701Z,101345.19
2022-10-22T10:58:14.389Z,101331.28
2022-10-22T11:00:53.816Z,101344.91
2022-10-22T11:03:46.087Z,101344.47
2022-10-22T11:06:19.432Z,101345.41
2022-10-22T11:09:19.401Z,101363.81
2022-10-22T11:12:04.383Z,101349.06
2022-10-22T11:14:55.938Z,101354.63
2022-10-22T11:17:26.430Z,101350.75
2022-10-22T11:20:01.418Z,101355.69
2022-10-22T11:22:38.361Z,101355.44
2022-10-22T11:25:23.740Z,101355.69
2022-10-22T11:28:07.920Z,101347.66
2022-10-22T11:30:40.535Z,101357.56
2022-10-22T11:33:14.942Z,101349.41
2022-10-22T11:35:45.662Z,101351.78
2022-10-22T11:38:17.392Z,101350.47
2022-10-22T11:41:00.302Z,101354.81
2022-10-22T11:43:51.390Z,101337.81
2022-10-22T11:46:18.429Z,101325.25
2022-10-22T11:49:02.120Z,101332.94
2022-10-22T11:51:37.407Z,101347.03
2022-10-22T11:54:31.396Z,101343.22
2022-10-22T11:57:20.950Z,101343.06
2022-10-22T11:59:48.125Z,101343.34
2022-10-22T12:02:46.037Z,101342.78
2022-10-22T12:05:24.951Z,101347.88
2022-10-22T12:07:57.134Z,101353.38
2022-10-22T12:10:34.026Z,101336.88
2022-10-22T12:13:22.627Z,101337.63
2022-10-22T12:15:54.242Z,101341.88
2022-10-22T12:18:26.058Z,101342.00
2022-10-22T12:20:54.355Z,101335.19
2022-10-22T12:23:30.587Z,101334.25
2022-10-22T12:25:58.151Z,101338.06
2022-10-22T12:28:25.510Z,101338.19
2022-10-22T12:30:52.608Z,101339.50
2022-10-22T12:33:22.629Z,101342.03
2022-10-22T12:35:53.934Z,101340.28
2022-10-22T12:38:25.462Z,101344.47
2022-10-22T12:40:55.641Z,101338.75
2022-10-22T12:43:30.742Z,101338.03
2022-10-22T12:45:59.680Z,101333.41
2022-10-22T12:48:34.365Z,101331.94
2022-10-22T12:51:04.704Z,101334.56
2022-10-22T12:53:39.264Z,101338.19
2022-10-22T12:56:15.897Z,101343.44
2022-10-22T12:58:47.026Z,101334.75
2022-10-22T13:01:17.100Z,101338.56
2022-10-22T13:03:50.666Z,101337.81
2022-10-22T13:06:20.517Z,101341.75
2022-10-22T13:08:56.797Z,101351.19
2022-10-22T13:11:23.926Z,101361.31
2022-10-22T13:13:51.013Z,101355.56
2022-10-22T13:16:27.764Z,101358.44
2022-10-22T13:18:54.969Z,101357.88
2022-10-22T13:21:26.855Z,101360.38
2022-10-22T13:24:02.779Z,101363.56
2022-10-22T13:26:33.401Z,101362.16
2022-10-22T13:29:01.408Z,101381.47
2022-10-22T13:31:33.508Z,101383.97
2022-10-22T13:34:11.729Z,101386.69
2022-10-22T13:36:41.133Z,101392.19
2022-10-22T13:39:17.104Z,101392.91
2022-10-22T13:41:44.316Z,101403.97
2022-10-22T13:44:11.401Z,101402.09
2022-10-22T13:46:42.637Z,101401.03
2022-10-22T13:49:16.781Z,101396.13
2022-10-22T13:51:44.410Z,101405.28
2022-10-22T13:54:17.969Z,101395.31
2022-10-22T13:56:45.316Z,101394.31
2022-10-22T13:59:12.710Z,101372.34
2022-10-22T14:01:40.086Z,101388.88
2022-10-22T14:04:10.645Z,101392.94
2022-10-22T14:06:37.833Z,101398.66
2022-10-22T14:09:13.985Z,101397.31
2022-10-22T14:11:41.410Z,101390.06
2022-10-22T14:14:09.197Z,101392.44
2022-10-22T14:16:37.581Z,101398.16
2022-10-22T14:19:07.582Z,101418.41
2022-10-22T14:21:37.296Z,101419.72
2022-10-22T14:24:07.102Z,101418.47
2022-10-22T14:26:36.620Z,101429.25
2022-10-22T14:29:09.353Z,101438.03
2022-10-22T14:34:10.799Z,101424.53
2022-10-22T14:36:37.937Z,101436.72
2022-10-22T14:39:05.036Z,101441.69
2022-10-22T14:41:32.265Z,101435.09
2022-10-22T14:43:59.855Z,101424.28
2022-10-22T14:46:27.114Z,101418.72
2022-10-22T14:48:54.198Z,101412.75
2022-10-22T14:51:21.887Z,101405.47
2022-10-22T14:53:49.427Z,101407.34
2022-10-22T14:56:21.172Z,101408.16
2022-10-22T14:58:49.010Z,101419.28
2022-10-22T15:01:16.585Z,101419.50
2022-10-22T15:03:43.698Z,101415.13
2022-10-22T15:06:10.937Z,101414.72
2022-10-22T15:08:38.211Z,101433.56
2022-10-22T15:11:07.542Z,101428.63
2022-10-22T15:13:35.411Z,101426.09
2022-10-22T15:16:09.662Z,101432.56
2022-10-22T15:18:37.136Z,101431.69
2022-10-22T15:21:13.200Z,101432.88
2022-10-22T15:23:40.654Z,101431.50
2022-10-22T15:26:09.546Z,101425.56
2022-10-22T15:28:38.103Z,101447.56
2022-10-22T15:31:06.583Z,101474.88
2022-10-22T15:33:34.162Z,101475.31
2022-10-22T15:36:15.449Z,101472.97
2022-10-22T15:38:42.639Z,101484.50
2022-10-22T15:41:12.575Z,101486.28
2022-10-22T15:43:39.686Z,101480.81
2022-10-22T15:46:13.309Z,101478.91
2022-10-22T15:48:41.237Z,101474.94
2022-10-22T15:51:10.400Z,101468.50
2022-10-22T15:53:37.743Z,101467.78
2022-10-22T15:56:05.292Z,101465.56
2022-10-22T15:58:32.935Z,101476.25
2022-10-22T16:01:08.410Z,101467.88
2022-10-22T16:03:36.425Z,101470.19
2022-10-22T16:06:04.857Z,101479.19
2022-10-22T16:08:32.572Z,101480.09
2022-10-22T16:10:59.949Z,101483.56
2022-10-22T16:13:27.563Z,101492.81
2022-10-22T16:15:54.762Z,101492.53
2022-10-22T16:18:23.533Z,101492.44
2022-10-22T16:20:50.763Z,101506.09
2022-10-22T16:23:19.062Z,101509.34
2022-10-22T16:25:46.659Z,101505.00
2022-10-22T16:28:14.615Z,101505.25
2022-10-22T16:30:42.104Z,101510.53
2022-10-22T16:33:10.617Z,101510.13
2022-10-22T16:35:42.390Z,101506.84
2022-10-22T16:38:10.976Z,101512.38
2022-10-22T16:40:38.483Z,101519.19
2022-10-22T16:43:05.810Z,101533.03
2022-10-22T16:45:32.968Z,101544.41
2022-10-22T16:48:00.091Z,101550.03
2022-10-22T16:50:27.600Z,101540.84
2022-10-22T16:52:54.811Z,101558.09
2022-10-22T16:55:21.922Z,101564.78
2022-10-22T16:57:53.328Z,101565.34
2022-10-22T17:00:21.341Z,101575.38
2022-10-22T17:02:53.315Z,101574.66
2022-10-22T17:05:21.248Z,101578.47
2022-10-22T17:07:48.724Z,101577.94
2022-10-22T17:10:19.251Z,101567.88
2022-10-22T17:12:47.367Z,101569.16
2022-10-22T17:15:15.061Z,101575.34
2022-10-22T17:17:42.270Z,101585.28
2022-10-22T17:20:11.310Z,101591.63
2022-10-22T17:22:38.536Z,101591.94
2022-10-22T17:25:15.114Z,101593.16
2022-10-22T17:27:44.215Z,101591.19
2022-10-22T17:30:23.298Z,101598.09
2022-10-22T17:32:53.877Z,101604.84
2022-10-22T17:35:21.038Z,101611.34
2022-10-22T17:37:48.380Z,101614.44
2022-10-22T17:40:15.738Z,101613.97
2022-10-22T17:42:43.267Z,101614.41
2022-10-22T17:45:10.502Z,101613.94
2022-10-22T17:47:37.660Z,101613.03
2022-10-22T17:50:04.991Z,101624.75
2022-10-22T17:52:32.097Z,101624.41
2022-10-22T17:54:59.247Z,101619.69
2022-10-22T17:57:26.362Z,101626.72
2022-10-22T17:59:53.513Z,101624.69
2022-10-22T18:02:20.640Z,101635.84
2022-10-22T18:04:51.223Z,101628.69
2022-10-22T18:07:18.410Z,101625.31
2022-10-22T18:09:45.531Z,101627.47
2022-10-22T18:12:13.727Z,101618.47
2022-10-22T18:14:41.033Z,101633.75
2022-10-22T18:17:08.382Z,101642.41
2022-10-22T18:19:35.596Z,101639.81
2022-10-22T18:22:02.765Z,101631.66
2022-10-22T18:24:29.918Z,101631.66
2022-10-22T18:26:57.063Z,101637.88
2022-10-22T18:29:43.142Z,101652.53
2022-10-22T18:32:13.152Z,101648.97
2022-10-22T18:34:40.499Z,101643.50
2022-10-22T18:37:07.677Z,101648.59
2022-10-22T18:39:34.864Z,101653.00
2022-10-22T18:42:06.123Z,101643.97
2022-10-22T18:44:34.577Z,101644.81
2022-10-22T18:47:01.683Z,101652.25
2022-10-22T18:49:28.871Z,101655.31
2022-10-22T18:51:56.037Z,101661.78
2022-10-22T18:54:24.392Z,101668.66
2022-10-22T18:57:00.554Z,101661.72
2022-10-22T18:59:30.025Z,101664.78
2022-10-22T19:02:00.275Z,101669.81
2022-10-22T19:04:33.033Z,101666.75
2022-10-22T19:07:00.267Z,101668.00
2022-10-22T19:09:27.450Z,101672.75
2022-10-22T19:11:54.525Z,101663.53
2022-10-22T19:14:22.131Z,101664.03
2022-10-22T19:16:49.578Z,101662.53
2022-10-22T19:19:19.203Z,101656.09
2022-10-22T19:21:47.033Z,101660.94
2022-10-22T19:24:15.892Z,101663.03
2022-10-22T19:26:44.067Z,101671.19
2022-10-22T19:29:11.186Z,101673.16
2022-10-22T19:31:38.479Z,101681.06
2022-10-22T19:34:05.566Z,101675.81
2022-10-22T19:36:32.878Z,101679.34
2022-10-22T19:39:00.407Z,101686.78
2022-10-22T19:41:29.408Z,101686.06
2022-10-22T19:43:57.976Z,101689.09
2022-10-22T19:46:26.162Z,101683.00
2022-10-22T19:48:54.172Z,101689.81
2022-10-22T19:51:24.226Z,101698.34
2022-10-22T19:53:58.133Z,101698.81
2022-10-22T19:56:25.374Z,101692.22
2022-10-22T19:58:52.563Z,101701.22
2022-10-22T20:01:20.616Z,101708.16
2022-10-22T20:03:48.849Z,101709.13
2022-10-22T20:06:17.646Z,101706.97
2022-10-22T20:08:45.427Z,101704.38
2022-10-22T20:11:18.663Z,101698.41
2022-10-22T20:13:49.675Z,101706.81
2022-10-22T20:16:22.933Z,101710.22
2022-10-22T20:18:53.027Z,101699.41
2022-10-22T20:21:20.635Z,101704.38
2022-10-22T20:23:51.398Z,101706.56
2022-10-22T20:26:18.875Z,101711.09
2022-10-22T20:28:45.999Z,101707.66
2022-10-22T20:31:16.847Z,101706.31
2022-10-22T20:33:44.008Z,101710.81
2022-10-22T20:36:17.807Z,101712.41
2022-10-22T20:38:47.918Z,101718.84
2022-10-22T20:41:20.739Z,101711.41
2022-10-22T20:43:49.482Z,101722.34
2022-10-22T20:46:18.123Z,101722.69
2022-10-22T20:48:45.415Z,101722.69
2022-10-22T20:51:12.784Z,101732.56
2022-10-22T20:53:39.927Z,101720.25
2022-10-22T20:56:07.158Z,101730.22
2022-10-22T20:58:34.363Z,101731.94
2022-10-22T21:01:10.019Z,101729.84
2022-10-22T21:03:37.927Z,101736.88
2022-10-22T21:06:06.151Z,101737.97
2022-10-22T21:08:33.281Z,101732.94
2022-10-22T21:11:00.422Z,101741.81
2022-10-22T21:13:27.530Z,101733.06
2022-10-22T21:15:54.627Z,101732.00
2022-10-22T21:18:21.751Z,101738.94
2022-10-22T21:20:48.822Z,101744.31
2022-10-22T21:23:16.004Z,101756.81
2022-10-22T21:25:53.135Z,101753.28
2022-10-22T21:28:20.438Z,101764.97
2022-10-22T21:30:47.586Z,101759.69
2022-10-22T21:33:14.770Z,101750.09
2022-10-22T21:35:50.142Z,101760.28
2022-10-22T21:38:17.255Z,101764.03
2022-10-22T21:40:44.482Z,101767.66
2022-10-22T21:43:11.593Z,101760.72
2022-10-22T21:45:38.999Z,101751.09
2022-10-22T21:48:06.359Z,101753.34
2022-10-22T21:50:33.749Z,101763.22
2022-10-22T21:53:00.827Z,101753.47
2022-10-22T21:55:27.979Z,101759.19
2022-10-22T21:57:55.055Z,101766.00
2022-10-22T22:00:22.247Z,101756.09
2022-10-22T22:02:49.341Z,101753.66
2022-10-22T22:05:17.375Z,101756.19
2022-10-22T22:07:44.474Z,101757.16
2022-10-22T22:10:11.598Z,101756.53
2022-10-22T22:12:38.845Z,101754.22
2022-10-22T22:15:06.870Z,101760.63
2022-10-22T22:17:34.070Z,101762.66
2022-10-22T22:20:01.234Z,101760.31
2022-10-22T22:22:29.726Z,101758.47
2022-10-22T22:24:56.823Z,101764.81
2022-10-22T22:27:23.928Z,101765.13
2022-10-22T22:29:51.021Z,101761.63
2022-10-22T22:32:18.122Z,101760.97
2022-10-22T22:34:45.246Z,101763.66
2022-10-22T22:37:12.371Z,101753.94
2022-10-22T22:39:39.498Z,101758.88
2022-10-22T22:42:06.630Z,101761.75
2022-10-22T22:44:33.715Z,101766.88
2022-10-22T22:47:00.960Z,101771.50
2022-10-22T22:49:28.149Z,101766.78
2022-10-22T22:51:55.327Z,101777.38
2022-10-22T22:54:22.439Z,101773.63
2022-10-22T22:56:50.161Z,101777.56
2022-10-22T22:59:17.291Z,101774.25
2022-10-22T23:01:45.372Z,101787.84
2022-10-22T23:04:16.383Z,101799.28
2022-10-22T23:06:43.567Z,101800.63
2022-10-22T23:09:13.050Z,101790.03
2022-10-22T23:11:42.187Z,101792.63
2022-10-22T23:14:12.471Z,101789.94
2022-10-22T23:16:45.326Z,101780.31
2022-10-22T23:19:14.567Z,101776.66
2022-10-22T23:21:46.155Z,101782.34
2022-10-22T23:24:16.537Z,101793.03
2022-10-22T23:26:46.891Z,101785.75
2022-10-22T23:29:15.892Z,101777.19
2022-10-22T23:31:44.354Z,101790.78
2022-10-22T23:34:16.071Z,101779.63
2022-10-22T23:36:43.262Z,101776.13
2022-10-22T23:39:13.602Z,101777.84
2022-10-22T23:41:40.950Z,101776.13
2022-10-22T23:44:09.588Z,101783.94
2022-10-22T23:46:38.471Z,101785.84
2022-10-22T23:49:07.461Z,101784.50
2022-10-22T23:51:35.127Z,101781.03
2022-10-22T23:54:05.266Z,101775.81
2022-10-22T23:56:33.344Z,101776.22
2022-10-22T23:59:00.506Z,101779.06
